Time;durP1;ratioP1;P1;durP2;ratioP2;P2;SDS_P1;SDS_P2;PMS_P1;PMS_P2;Temp;Humidity;BMP_temperature;BMP_pressure;BME280_temperature;BME280_humidity;BME280_pressure;Samples;Min_cycle;Max_cycle;Signal;HPM_P1;HPM_P2
2021/05/09 00:00:54;;;;;;;;;;;;;;;4.00;85.34;99669.47;3525848;28;19974;-48
2021/05/09 00:02:36;;;;;;;;;;;;;;;3.99;85.43;99666.84;3526385;28;20025;-51
2021/05/09 00:04:18;;;;;;;;;;;;;;;3.97;85.45;99668.47;3525199;28;19928;-41
2021/05/09 00:06:00;;;;;;;;;;;;;;;3.96;85.57;99664.16;3526012;28;20776;-50
2021/05/09 00:07:41;;;;;;;;;;;;;;;3.95;85.57;99667.56;3526245;28;19927;-41
2021/05/09 00:09:22;;;;;;;;;;;;;;;3.94;85.48;99674.34;3526000;28;19967;-42
2021/05/09 00:11:03;;;;;;;;;;;;;;;3.91;85.71;99671.69;3526265;28;19943;-41
2021/05/09 00:12:45;;;;;;;;;;;;;;;3.90;85.74;99675.06;3524882;28;19984;-51
2021/05/09 00:14:26;;;;;;;;;;;;;;;3.90;85.78;99676.75;3525050;28;19959;-49
2021/05/09 00:16:07;;;;;;;;;;;;;;;3.88;85.74;99670.66;3524248;28;19988;-49
2021/05/09 00:17:49;;;;;;;;;;;;;;;3.87;85.69;99679.19;3525408;28;20023;-49
2021/05/09 00:19:30;;;;;;;;;;;;;;;3.85;85.79;99674.84;3525629;28;19932;-42
2021/05/09 00:21:12;;;;;;;;;;;;;;;3.84;85.66;99675.69;3526638;28;19927;-50
2021/05/09 00:22:53;;;;;;;;;;;;;;;3.84;85.81;99675.69;3525955;28;20384;-43
2021/05/09 00:24:34;;;;;;;;;;;;;;;3.84;85.65;99687.63;3524850;28;20384;-42
2021/05/09 00:26:15;;;;;;;;;;;;;;;3.83;85.68;99678.19;3526916;28;19927;-49
2021/05/09 00:27:56;;;;;;;;;;;;;;;3.81;85.69;99682.38;3525040;28;19976;-51
2021/05/09 00:29:37;;;;;;;;;;;;;;;3.79;85.88;99686.59;3525783;28;20022;-50
2021/05/09 00:31:19;;;;;;;;;;;;;;;3.77;85.99;99685.63;3525219;28;19932;-50
2021/05/09 00:33:00;;;;;;;;;;;;;;;3.76;86.11;99691.59;3525273;28;19935;-41
2021/05/09 00:34:41;;;;;;;;;;;;;;;3.74;86.16;99696.66;3526354;28;20419;-49
2021/05/09 00:36:25;;;;;;;;;;;;;;;3.73;86.25;99683.75;3524910;28;19928;-42
2021/05/09 00:38:06;;;;;;;;;;;;;;;3.73;85.75;99691.44;3526554;28;19928;-42
2021/05/09 00:39:47;;;;;;;;;;;;;;;3.72;85.61;99694.81;3524898;28;20380;-42
2021/05/09 00:41:28;;;;;;;;;;;;;;;3.71;85.42;99693.06;3525916;28;19931;-49
2021/05/09 00:43:10;;;;;;;;;;;;;;;3.69;85.50;99698.13;3526098;28;20062;-42
2021/05/09 00:44:53;;;;;;;;;;;;;;;3.69;85.44;99699.84;3525717;28;19967;-50
2021/05/09 00:46:34;;;;;;;;;;;;;;;3.66;85.47;99708.28;3525795;28;20355;-45
2021/05/09 00:48:18;;;;;;;;;;;;;;;3.63;85.44;99701.34;3524961;28;20071;-49
2021/05/09 00:49:59;;;;;;;;;;;;;;;3.60;85.50;99702.91;3526152;28;19975;-45
2021/05/09 00:51:41;;;;;;;;;;;;;;;3.57;85.77;99705.31;3524561;28;19971;-44
2021/05/09 00:53:23;;;;;;;;;;;;;;;3.53;85.67;99699.19;3525397;28;19970;-52
2021/05/09 00:55:05;;;;;;;;;;;;;;;3.50;86.01;99704.19;3524778;28;19948;-53
2021/05/09 00:56:47;;;;;;;;;;;;;;;3.49;86.12;99706.69;3524266;28;19928;-53
2021/05/09 00:58:28;;;;;;;;;;;;;;;3.45;86.49;99706.56;3524348;28;19927;-53
2021/05/09 01:00:11;;;;;;;;;;;;;;;3.43;86.18;99708.16;3524126;28;19931;-45
2021/05/09 01:01:52;;;;;;;;;;;;;;;3.39;86.04;99713.97;3526410;28;19928;-53
2021/05/09 01:03:35;;;;;;;;;;;;;;;3.38;86.12;99708.78;3524278;28;19935;-53
2021/05/09 01:05:16;;;;;;;;;;;;;;;3.33;86.33;99713.75;3526342;28;19928;-52
2021/05/09 01:06:58;;;;;;;;;;;;;;;3.30;86.31;99716.16;3525088;28;19970;-54
2021/05/09 01:08:39;;;;;;;;;;;;;;;3.26;86.91;99717.72;3524953;28;19995;-44
2021/05/09 01:10:20;;;;;;;;;;;;;;;3.23;86.82;99719.28;3525961;28;19959;-45
2021/05/09 01:12:01;;;;;;;;;;;;;;;3.19;87.15;99718.25;3524413;28;20007;-45
2021/05/09 01:13:42;;;;;;;;;;;;;;;3.16;87.28;99727.50;3518122;28;19928;-50
2021/05/09 01:15:24;;;;;;;;;;;;;;;3.12;87.22;99725.59;3524731;28;20390;-45
2021/05/09 01:17:05;;;;;;;;;;;;;;;3.09;87.30;99729.78;3524755;28;20412;-52
2021/05/09 01:18:47;;;;;;;;;;;;;;;3.06;86.94;99732.19;3525210;28;19934;-45
2021/05/09 01:20:36;;;;;;;;;;;;;;;3.04;87.19;99732.94;3524328;28;20380;-53
2021/05/09 01:22:17;;;;;;;;;;;;;;;3.00;87.19;99720.81;3525913;28;19971;-44
2021/05/09 01:23:58;;;;;;;;;;;;;;;2.97;87.53;99729.22;3524474;28;19928;-52
2021/05/09 01:25:40;;;;;;;;;;;;;;;2.95;87.49;99735.97;3524770;28;20044;-45
2021/05/09 01:27:21;;;;;;;;;;;;;;;2.93;87.52;99731.59;3524766;28;19987;-44
2021/05/09 01:29:03;;;;;;;;;;;;;;;2.90;87.49;99733.19;3524371;28;19928;-53
2021/05/09 01:30:44;;;;;;;;;;;;;;;2.90;86.98;99738.31;3524998;28;20010;-52
2021/05/09 01:32:25;;;;;;;;;;;;;;;2.88;87.34;99732.25;3523679;28;19955;-53
2021/05/09 01:34:07;;;;;;;;;;;;;;;2.86;87.79;99746.69;3525151;28;19928;-51
2021/05/09 01:35:49;;;;;;;;;;;;;;;2.84;87.75;99739.75;3523841;28;19982;-50
2021/05/09 01:37:30;;;;;;;;;;;;;;;2.84;87.85;99745.75;3524985;28;19932;-51
2021/05/09 01:39:11;;;;;;;;;;;;;;;2.83;87.70;99743.09;3524120;28;20385;-53
2021/05/09 01:40:52;;;;;;;;;;;;;;;2.83;87.52;99745.66;3524143;28;19927;-53
2021/05/09 01:42:33;;;;;;;;;;;;;;;2.81;87.58;99750.72;3524113;28;20381;-53
2021/05/09 01:44:14;;;;;;;;;;;;;;;2.82;87.36;99749.06;3523755;28;19928;-51
2021/05/09 01:45:56;;;;;;;;;;;;;;;2.82;88.18;99757.59;3524973;28;19966;-53
2021/05/09 01:47:37;;;;;;;;;;;;;;;2.82;87.74;99756.75;3523678;28;20331;-53
2021/05/09 01:49:18;;;;;;;;;;;;;;;2.84;87.74;99755.13;3524500;28;19928;-52
2021/05/09 01:51:00;;;;;;;;;;;;;;;2.83;87.91;99751.66;3524552;28;19950;-44
2021/05/09 01:52:41;;;;;;;;;;;;;;;2.85;87.91;99751.72;3523748;28;19935;-44
2021/05/09 01:54:22;;;;;;;;;;;;;;;2.84;87.81;99750.88;3524161;28;19927;-44
2021/05/09 01:56:04;;;;;;;;;;;;;;;2.84;87.83;99753.44;3523138;28;20412;-45
2021/05/09 01:57:45;;;;;;;;;;;;;;;2.83;88.28;99759.34;3524768;28;19935;-45
2021/05/09 01:59:26;;;;;;;;;;;;;;;2.83;87.73;99764.47;3523444;28;19967;-44
2021/05/09 02:01:08;;;;;;;;;;;;;;;2.82;87.77;99760.16;3524352;28;19927;-44
2021/05/09 02:02:50;;;;;;;;;;;;;;;2.81;87.97;99763.53;3524090;28;20056;-53
2021/05/09 02:04:31;;;;;;;;;;;;;;;2.80;87.42;99764.34;3523975;28;20375;-53
2021/05/09 02:06:13;;;;;;;;;;;;;;;2.80;87.68;99771.13;3524103;28;20543;-53
2021/05/09 02:07:54;;;;;;;;;;;;;;;2.77;87.47;99779.56;3523484;28;19975;-53
2021/05/09 02:09:35;;;;;;;;;;;;;;;2.76;87.50;99777.81;3524745;28;19927;-53
2021/05/09 02:11:17;;;;;;;;;;;;;;;2.77;87.71;99781.25;3523539;28;19975;-53
2021/05/09 02:12:58;;;;;;;;;;;;;;;2.74;87.64;99774.31;3524373;28;19974;-54
2021/05/09 02:14:39;;;;;;;;;;;;;;;2.74;87.74;99786.25;3522745;28;19975;-53
2021/05/09 02:16:20;;;;;;;;;;;;;;;2.71;87.76;99779.28;3523767;28;20411;-54
2021/05/09 02:18:01;;;;;;;;;;;;;;;2.71;87.78;99774.16;3524478;28;19963;-53
2021/05/09 02:19:42;;;;;;;;;;;;;;;2.68;87.95;99780.03;3523092;28;19927;-53
2021/05/09 02:21:24;;;;;;;;;;;;;;;2.68;88.05;99779.16;3524657;28;19951;-54
2021/05/09 02:23:05;;;;;;;;;;;;;;;2.67;88.03;99779.94;3523778;28;19928;-54
2021/05/09 02:24:46;;;;;;;;;;;;;;;2.64;88.26;99783.25;3524819;28;19963;-53
2021/05/09 02:26:28;;;;;;;;;;;;;;;2.64;88.39;99795.16;3523565;28;19927;-54
2021/05/09 02:28:09;;;;;;;;;;;;;;;2.61;88.15;99790.78;3522659;28;20452;-54
2021/05/09 02:29:50;;;;;;;;;;;;;;;2.60;88.28;99789.00;3524125;28;19975;-54
2021/05/09 02:31:31;;;;;;;;;;;;;;;2.60;88.39;99798.38;3522481;28;20348;-53
2021/05/09 02:33:13;;;;;;;;;;;;;;;2.59;88.51;99804.31;3524745;28;19927;-53
2021/05/09 02:34:54;;;;;;;;;;;;;;;2.56;88.47;99805.06;3523257;28;19981;-54
2021/05/09 02:36:35;;;;;;;;;;;;;;;2.56;88.61;99810.16;3524716;28;20012;-44
2021/05/09 02:38:17;;;;;;;;;;;;;;;2.56;88.74;99810.16;3523277;28;20289;-44
2021/05/09 02:39:58;;;;;;;;;;;;;;;2.56;88.46;99820.41;3523836;28;20060;-43
2021/05/09 02:41:39;;;;;;;;;;;;;;;2.58;88.90;99815.38;3523972;28;19935;-44
2021/05/09 02:43:20;;;;;;;;;;;;;;;2.58;88.72;99823.06;3523251;28;19974;-44
2021/05/09 02:45:02;;;;;;;;;;;;;;;2.58;88.67;99831.59;3524249;28;20346;-44
2021/05/09 02:46:43;;;;;;;;;;;;;;;2.60;88.48;99826.56;3523252;28;19969;-45
2021/05/09 02:48:24;;;;;;;;;;;;;;;2.61;88.75;99826.63;3524551;28;19927;-44
2021/05/09 02:50:07;;;;;;;;;;;;;;;2.64;88.97;99828.44;3523193;28;20368;-43
2021/05/09 02:51:49;;;;;;;;;;;;;;;2.66;88.94;99832.84;3523442;28;19928;-43
2021/05/09 02:53:30;;;;;;;;;;;;;;;2.70;88.76;99831.31;3523236;28;19970;-44
2021/05/09 02:55:12;;;;;;;;;;;;;;;2.73;88.69;99834.03;3523454;28;19928;-54
2021/05/09 02:56:53;;;;;;;;;;;;;;;2.78;88.57;99845.34;3523197;28;19927;-52
2021/05/09 02:58:34;;;;;;;;;;;;;;;2.80;88.54;99850.56;3522834;28;20046;-53
2021/05/09 03:00:15;;;;;;;;;;;;;;;2.84;88.19;99849.91;3524476;28;19927;-54
2021/05/09 03:02:06;;;;;;;;;;;;;;;2.86;88.01;99850.84;3522827;28;19928;-53
2021/05/09 03:03:47;;;;;;;;;;;;;;;2.91;88.29;99851.94;3523913;28;19928;-52
2021/05/09 03:05:28;;;;;;;;;;;;;;;2.95;88.02;99858.09;3523938;28;19927;-53
2021/05/09 03:07:10;;;;;;;;;;;;;;;2.98;88.19;99860.81;3525531;28;19928;-52
2021/05/09 03:08:52;;;;;;;;;;;;;;;3.02;88.11;99868.69;3526886;28;19927;-52
2021/05/09 03:10:34;;;;;;;;;;;;;;;3.05;88.37;99865.41;3525227;28;19928;-53
2021/05/09 03:12:15;;;;;;;;;;;;;;;3.08;88.19;99865.53;3519264;28;19934;-44
2021/05/09 03:13:56;;;;;;;;;;;;;;;3.11;88.50;99877.63;3523232;28;20427;-51
2021/05/09 03:15:38;;;;;;;;;;;;;;;3.15;88.29;99880.38;3525850;28;20357;-54
2021/05/09 03:17:19;;;;;;;;;;;;;;;3.18;88.35;99883.09;3526437;28;19967;-54
2021/05/09 03:19:00;;;;;;;;;;;;;;;3.20;87.97;99889.19;3525747;28;19958;-44
2021/05/09 03:20:41;;;;;;;;;;;;;;;3.25;87.86;99876.59;3526729;28;20045;-54
2021/05/09 03:22:23;;;;;;;;;;;;;;;3.30;87.67;99882.81;3525613;28;20269;-54
2021/05/09 03:24:05;;;;;;;;;;;;;;;3.34;87.76;99879.56;3527011;28;19986;-55
2021/05/09 03:25:46;;;;;;;;;;;;;;;3.37;87.97;99879.72;3525426;28;19967;-56
2021/05/09 03:27:27;;;;;;;;;;;;;;;3.42;87.93;99880.81;3525876;28;19970;-56
2021/05/09 03:29:08;;;;;;;;;;;;;;;3.46;87.90;99889.50;3526217;28;19928;-56
2021/05/09 03:30:50;;;;;;;;;;;;;;;3.49;87.95;99892.22;3525636;28;19935;-56
2021/05/09 03:32:31;;;;;;;;;;;;;;;3.54;87.88;99892.41;3526441;28;19931;-44
2021/05/09 03:34:13;;;;;;;;;;;;;;;3.57;87.57;99890.84;3525456;28;20312;-56
2021/05/09 03:35:55;;;;;;;;;;;;;;;3.62;87.30;99889.38;3526372;28;19935;-57
2021/05/09 03:37:36;;;;;;;;;;;;;;;3.67;87.56;99901.56;3525365;28;20385;-56
2021/05/09 03:39:18;;;;;;;;;;;;;;;3.69;87.33;99895.69;3525667;28;19951;-45
2021/05/09 03:40:59;;;;;;;;;;;;;;;3.74;87.28;99907.03;3525352;28;20313;-44
2021/05/09 03:42:40;;;;;;;;;;;;;;;3.77;87.11;99909.75;3525281;28;19934;-50
2021/05/09 03:44:21;;;;;;;;;;;;;;;3.82;86.95;99908.25;3526472;28;20024;-57
2021/05/09 03:46:02;;;;;;;;;;;;;;;3.86;86.82;99906.69;3525264;28;19928;-57
2021/05/09 03:47:44;;;;;;;;;;;;;;;3.90;87.04;99908.59;3526080;28;19970;-57
2021/05/09 03:49:25;;;;;;;;;;;;;;;3.94;86.51;99904.47;3525571;28;19973;-57
2021/05/09 03:51:06;;;;;;;;;;;;;;;3.99;86.45;99903.84;3525697;28;19932;-57
2021/05/09 03:52:48;;;;;;;;;;;;;;;4.04;86.41;99901.50;3525882;28;19928;-44
2021/05/09 03:54:29;;;;;;;;;;;;;;;4.10;86.48;99912.00;3525046;28;19947;-45
2021/05/09 03:56:10;;;;;;;;;;;;;;;4.17;86.20;99915.72;3526566;28;19931;-45
2021/05/09 03:57:52;;;;;;;;;;;;;;;4.20;85.57;99906.47;3524951;28;19975;-46
2021/05/09 03:59:33;;;;;;;;;;;;;;;4.26;85.51;99905.84;3525753;28;20079;-45
2021/05/09 04:01:14;;;;;;;;;;;;;;;4.31;85.29;99912.06;3525700;28;20008;-56
2021/05/09 04:02:55;;;;;;;;;;;;;;;4.36;85.29;99908.00;3525109;28;19928;-57
2021/05/09 04:04:36;;;;;;;;;;;;;;;4.43;85.39;99911.69;3525066;28;20341;-57
2021/05/09 04:06:18;;;;;;;;;;;;;;;4.48;85.26;99910.22;3524877;28;19932;-57
2021/05/09 04:07:59;;;;;;;;;;;;;;;4.56;84.92;99913.94;3526198;28;20028;-57
2021/05/09 04:09:40;;;;;;;;;;;;;;;4.65;84.97;99923.72;3524689;28;19928;-57
2021/05/09 04:11:21;;;;;;;;;;;;;;;4.71;84.49;99926.56;3526286;28;20019;-45
2021/05/09 04:13:02;;;;;;;;;;;;;;;4.78;84.02;99922.56;3523205;28;19935;-57
2021/05/09 04:14:44;;;;;;;;;;;;;;;4.83;84.04;99926.22;3514742;28;20352;-57
2021/05/09 04:16:25;;;;;;;;;;;;;;;4.90;83.95;99929.88;3525505;28;19936;-57
2021/05/09 04:18:06;;;;;;;;;;;;;;;4.94;83.43;99940.34;3523653;28;20419;-45
2021/05/09 04:19:47;;;;;;;;;;;;;;;4.98;82.76;99937.09;3525984;28;19927;-45
2021/05/09 04:21:28;;;;;;;;;;;;;;;5.01;82.79;99932.88;3524702;28;20317;-44
2021/05/09 04:23:15;;;;;;;;;;;;;;;5.08;82.91;99932.34;3526271;28;19967;-56
2021/05/09 04:24:56;;;;;;;;;;;;;;;5.16;83.04;99934.41;3524915;28;19975;-56
2021/05/09 04:26:37;;;;;;;;;;;;;;;5.24;82.12;99939.84;3525443;28;19927;-56
2021/05/09 04:28:19;;;;;;;;;;;;;;;5.30;81.89;99934.03;3524458;28;19935;-58
2021/05/09 04:30:00;;;;;;;;;;;;;;;5.40;82.42;99936.16;3524588;28;19928;-59
2021/05/09 04:31:41;;;;;;;;;;;;;;;5.48;82.31;99942.50;3525794;28;19951;-58
2021/05/09 04:33:24;;;;;;;;;;;;;;;5.59;81.84;99944.56;3524736;28;19934;-56
2021/05/09 04:35:05;;;;;;;;;;;;;;;5.66;81.42;99944.88;3525812;28;20291;-58
2021/05/09 04:36:46;;;;;;;;;;;;;;;5.73;81.33;99943.41;3523625;28;19927;-46
2021/05/09 04:38:28;;;;;;;;;;;;;;;5.79;80.67;99951.34;3525540;28;19927;-56
2021/05/09 04:40:10;;;;;;;;;;;;;;;5.84;80.59;99952.41;3525927;28;19928;-57
2021/05/09 04:41:51;;;;;;;;;;;;;;;5.91;80.37;99951.81;3524566;28;20403;-56
2021/05/09 04:43:34;;;;;;;;;;;;;;;5.99;80.41;99958.94;3511939;28;19928;-44
2021/05/09 04:45:15;;;;;;;;;;;;;;;6.06;79.59;99958.34;3521435;28;19928;-43
2021/05/09 04:46:56;;;;;;;;;;;;;;;6.11;79.86;99951.66;3525965;28;19928;-44
2021/05/09 04:48:37;;;;;;;;;;;;;;;6.16;78.72;99964.72;3525177;28;19928;-46
2021/05/09 04:50:18;;;;;;;;;;;;;;;6.18;78.49;99968.22;3524963;28;20015;-57
2021/05/09 04:52:00;;;;;;;;;;;;;;;6.25;78.69;99967.63;3525326;28;20387;-56
2021/05/09 04:53:41;;;;;;;;;;;;;;;6.33;78.50;99971.34;3524515;28;19954;-56
2021/05/09 04:55:23;;;;;;;;;;;;;;;6.40;78.18;99973.31;3525560;28;19981;-56
2021/05/09 04:57:04;;;;;;;;;;;;;;;6.42;76.85;99969.09;3524726;28;19970;-45
2021/05/09 04:58:45;;;;;;;;;;;;;;;6.49;77.51;99970.19;3525606;28;19977;-44
2021/05/09 05:00:27;;;;;;;;;;;;;;;6.57;nan;99983.31;3524711;28;19967;-45
2021/05/09 05:02:08;;;;;;;;;;;;;;;6.66;77.91;99978.47;3525345;28;20875;-45
2021/05/09 05:03:49;;;;;;;;;;;;;;;6.75;76.11;99976.22;3525908;28;19928;-56
2021/05/09 05:05:31;;;;;;;;;;;;;;;6.83;76.64;99987.66;3524554;28;19928;-56
2021/05/09 05:07:14;;;;;;;;;;;;;;;6.88;75.40;99990.41;3525413;28;19928;-57
2021/05/09 05:08:56;;;;;;;;;;;;;;;6.94;76.23;99987.16;3523761;28;19931;-56
2021/05/09 05:10:37;;;;;;;;;;;;;;;7.04;76.59;99991.84;3524857;28;19927;-58
2021/05/09 05:12:18;;;;;;;;;;;;;;;7.11;75.74;99998.94;3524691;28;19928;-56
2021/05/09 05:14:00;;;;;;;;;;;;;;;7.21;76.15;99997.53;3521782;28;19935;-45
2021/05/09 05:15:41;;;;;;;;;;;;;;;7.30;75.37;99992.69;3525397;28;19982;-54
2021/05/09 05:17:22;;;;;;;;;;;;;;;7.40;75.06;99994.72;3523998;28;20502;-54
2021/05/09 05:19:03;;;;;;;;;;;;;;;7.45;72.96;99992.28;3525537;28;19938;-54
2021/05/09 05:20:46;;;;;;;;;;;;;;;7.52;73.89;99986.47;3524214;28;20400;-45
2021/05/09 05:22:28;;;;;;;;;;;;;;;7.63;73.89;99990.25;3524787;28;19993;-46
2021/05/09 05:24:10;;;;;;;;;;;;;;;7.72;74.00;99994.81;3523707;28;20010;-45
2021/05/09 05:25:52;;;;;;;;;;;;;;;7.89;73.56;100003.09;3524189;28;19946;-45
2021/05/09 05:27:33;;;;;;;;;;;;;;;7.96;71.24;100002.44;3525323;28;19928;-53
2021/05/09 05:29:14;;;;;;;;;;;;;;;8.01;69.73;100000.00;3523718;28;20361;-53
2021/05/09 05:30:55;;;;;;;;;;;;;;;8.08;70.70;99999.34;3524450;28;20400;-53
2021/05/09 05:32:40;;;;;;;;;;;;;;;8.12;70.51;100003.75;3523798;28;19935;-54
2021/05/09 05:34:21;;;;;;;;;;;;;;;8.17;69.68;99993.56;3524672;28;20019;-53
2021/05/09 05:36:21;;;;;;;;;;;;;;;8.26;70.01;99993.81;3524481;28;19963;-54
2021/05/09 05:38:02;;;;;;;;;;;;;;;8.37;69.49;99991.53;3523984;28;20366;-54
2021/05/09 05:39:44;;;;;;;;;;;;;;;8.45;69.06;100002.97;3525263;28;19928;-46
2021/05/09 05:41:25;;;;;;;;;;;;;;;8.48;67.68;99997.91;3523649;28;19935;-45
2021/05/09 05:43:07;;;;;;;;;;;;;;;8.55;68.32;99999.81;3524629;28;19971;-45
2021/05/09 05:44:48;;;;;;;;;;;;;;;8.60;67.67;100000.78;3524139;28;20285;-45
2021/05/09 05:46:30;;;;;;;;;;;;;;;8.65;68.61;99998.31;3523910;28;19974;-46
2021/05/09 05:48:11;;;;;;;;;;;;;;;8.75;67.72;100000.31;3524779;28;20033;-45
2021/05/09 05:49:55;;;;;;;;;;;;;;;8.88;67.72;100003.25;3523814;28;19928;-45
2021/05/09 05:51:36;;;;;;;;;;;;;;;8.98;66.94;100003.50;3525080;28;20368;-46
2021/05/09 05:53:18;;;;;;;;;;;;;;;9.04;66.38;99999.31;3523710;28;19949;-45
2021/05/09 05:55:00;;;;;;;;;;;;;;;9.10;66.81;99995.19;3524709;28;19981;-46
2021/05/09 05:56:41;;;;;;;;;;;;;;;9.22;66.05;99998.91;3524367;28;19966;-51
2021/05/09 05:58:22;;;;;;;;;;;;;;;9.34;66.28;100002.66;3523943;28;19928;-53
2021/05/09 06:00:04;;;;;;;;;;;;;;;9.46;65.46;100003.84;3524533;28;20017;-51
2021/05/09 06:01:45;;;;;;;;;;;;;;;9.52;63.46;100004.84;3523312;28;20293;-51
2021/05/09 06:03:28;;;;;;;;;;;;;;;9.56;63.26;100005.81;3524837;28;20343;-54
2021/05/09 06:05:09;;;;;;;;;;;;;;;9.65;63.54;100000.81;3524061;28;20338;-53
2021/05/09 06:06:51;;;;;;;;;;;;;;;9.72;62.35;100000.13;3524320;28;19928;-53
2021/05/09 06:08:32;;;;;;;;;;;;;;;9.82;63.74;100006.38;3523910;28;20328;-52
2021/05/09 06:10:14;;;;;;;;;;;;;;;9.92;63.77;100012.63;3523770;28;19934;-51
2021/05/09 06:11:55;;;;;;;;;;;;;;;10.07;62.75;100009.47;3524493;28;19928;-53
2021/05/09 06:13:36;;;;;;;;;;;;;;;10.17;60.89;100000.19;3521902;28;19993;-52
2021/05/09 06:15:17;;;;;;;;;;;;;;;10.30;63.44;100002.22;3525625;28;19928;-45
2021/05/09 06:16:58;;;;;;;;;;;;;;;10.48;63.40;100007.75;3523972;28;20412;-51
2021/05/09 06:18:39;;;;;;;;;;;;;;;10.60;60.15;100007.13;3525341;28;19951;-50
2021/05/09 06:20:20;;;;;;;;;;;;;;;10.67;59.92;100015.88;3522401;28;20277;-52
2021/05/09 06:22:03;;;;;;;;;;;;;;;10.53;56.83;100005.25;3525560;28;20301;-52
2021/05/09 06:23:44;;;;;;;;;;;;;;;10.44;56.99;100018.91;3525124;28;19943;-46
2021/05/09 06:25:26;;;;;;;;;;;;;;;10.45;59.07;100025.84;3524107;28;19981;-50
2021/05/09 06:27:10;;;;;;;;;;;;;;;10.48;57.52;100027.63;3510859;28;19935;-52
2021/05/09 06:28:53;;;;;;;;;;;;;;;10.55;59.95;100026.91;3520328;28;20465;-51
2021/05/09 06:30:34;;;;;;;;;;;;;;;10.67;59.17;100023.66;3524368;28;19971;-51
2021/05/09 06:32:15;;;;;;;;;;;;;;;10.86;59.35;100025.78;3524736;28;19927;-53
2021/05/09 06:33:56;;;;;;;;;;;;;;;10.89;56.14;100024.06;3524083;28;19996;-45
2021/05/09 06:35:39;;;;;;;;;;;;;;;10.76;56.40;100022.94;3517931;28;20289;-46
2021/05/09 06:37:20;;;;;;;;;;;;;;;10.76;57.98;100020.34;3516642;28;20004;-46
2021/05/09 06:39:03;;;;;;;;;;;;;;;10.81;56.77;100027.41;3524999;28;19931;-54
2021/05/09 06:40:45;;;;;;;;;;;;;;;10.94;57.74;100023.31;3523354;28;19927;-52
2021/05/09 06:42:26;;;;;;;;;;;;;;;10.95;55.25;100024.16;3524448;28;20209;-53
2021/05/09 06:44:10;;;;;;;;;;;;;;;10.97;57.48;100015.56;3524015;28;19928;-46
2021/05/09 06:45:52;;;;;;;;;;;;;;;11.11;57.93;100025.31;3523562;28;20377;-45
2021/05/09 06:47:32;;;;;;;;;;;;;;;11.19;56.00;100027.19;3524368;28;19985;-55
2021/05/09 06:49:15;;;;;;;;;;;;;;;11.33;57.27;100024.84;3523350;28;19963;-53
2021/05/09 06:50:58;;;;;;;;;;;;;;;11.53;57.66;100024.28;3524429;28;20396;-52
2021/05/09 06:52:41;;;;;;;;;;;;;;;11.69;56.16;100030.59;3522994;28;20312;-52
2021/05/09 06:54:22;;;;;;;;;;;;;;;11.87;57.45;100033.47;3524474;28;19927;-47
2021/05/09 06:56:04;;;;;;;;;;;;;;;11.99;54.71;100041.47;3524183;28;19932;-50
2021/05/09 06:57:46;;;;;;;;;;;;;;;12.00;54.14;100034.53;3523396;28;20436;-47
2021/05/09 06:59:27;;;;;;;;;;;;;;;12.04;55.72;100035.44;3524263;28;19966;-51
2021/05/09 07:01:12;;;;;;;;;;;;;;;12.10;54.71;100032.91;3523250;28;19981;-54
2021/05/09 07:02:53;;;;;;;;;;;;;;;12.11;53.50;100034.66;3524789;28;19927;-53
2021/05/09 07:04:34;;;;;;;;;;;;;;;12.09;53.51;100039.84;3522941;28;19936;-50
2021/05/09 07:06:16;;;;;;;;;;;;;;;12.11;54.43;100032.94;3523967;28;19927;-53
2021/05/09 07:07:57;;;;;;;;;;;;;;;12.08;51.64;100027.72;3523655;28;19986;-50
2021/05/09 07:09:39;;;;;;;;;;;;;;;12.19;53.35;100026.09;3523411;28;20380;-52
2021/05/09 07:11:21;;;;;;;;;;;;;;;12.26;52.51;100029.66;3524357;28;20010;-47
2021/05/09 07:13:02;;;;;;;;;;;;;;;12.27;51.60;100031.41;3521519;28;20411;-52
2021/05/09 07:14:43;;;;;;;;;;;;;;;12.34;50.49;100022.81;3524441;28;19927;-51
2021/05/09 07:16:25;;;;;;;;;;;;;;;12.35;50.37;100029.78;3523192;28;19971;-50
2021/05/09 07:18:10;;;;;;;;;;;;;;;12.34;51.43;100033.22;3523968;28;19928;-52
2021/05/09 07:19:52;;;;;;;;;;;;;;;12.34;51.39;100028.00;3522634;28;19932;-51
2021/05/09 07:21:36;;;;;;;;;;;;;;;12.47;53.17;100022.97;3523246;28;19935;-50
2021/05/09 07:23:17;;;;;;;;;;;;;;;12.70;50.98;100028.41;3523890;28;19935;-51
2021/05/09 07:24:58;;;;;;;;;;;;;;;12.52;48.54;100026.50;3522887;28;19928;-52
2021/05/09 07:26:40;;;;;;;;;;;;;;;12.37;51.65;100033.25;3524162;28;19928;-52
2021/05/09 07:28:22;;;;;;;;;;;;;;;12.50;52.40;100030.81;3523047;28;19935;-49
2021/05/09 07:30:03;;;;;;;;;;;;;;;12.53;50.16;100026.50;3523716;28;19928;-47
2021/05/09 07:31:44;;;;;;;;;;;;;;;12.57;50.26;100028.28;3523532;28;19934;-50
2021/05/09 07:33:25;;;;;;;;;;;;;;;12.69;50.99;100024.09;3523191;28;19964;-50
2021/05/09 07:35:07;;;;;;;;;;;;;;;12.64;49.10;100020.56;3524034;28;19973;-51
2021/05/09 07:36:48;;;;;;;;;;;;;;;12.48;49.66;100032.53;3522698;28;20252;-48
2021/05/09 07:38:29;;;;;;;;;;;;;;;12.41;49.52;100035.91;3524515;28;19963;-47
2021/05/09 07:40:11;;;;;;;;;;;;;;;12.40;50.15;100042.84;3522962;28;19927;-46
2021/05/09 07:41:53;;;;;;;;;;;;;;;12.41;50.82;100035.91;3523950;28;19973;-52
2021/05/09 07:43:34;;;;;;;;;;;;;;;12.58;51.20;100034.38;3523600;28;19928;-49
2021/05/09 07:45:17;;;;;;;;;;;;;;;12.88;51.70;100030.38;3523096;28;20304;-49
2021/05/09 07:46:58;;;;;;;;;;;;;;;13.10;49.96;100034.94;3523913;28;19990;-49
2021/05/09 07:48:39;;;;;;;;;;;;;;;12.93;48.74;100037.38;3522622;28;20274;-50
2021/05/09 07:50:24;;;;;;;;;;;;;;;12.87;50.87;100032.06;3523239;28;19961;-51
2021/05/09 07:52:05;;;;;;;;;;;;;;;12.81;49.20;100037.22;3523041;28;20400;-47
2021/05/09 07:53:47;;;;;;;;;;;;;;;12.83;47.65;100032.03;3524615;28;20404;-46
2021/05/09 07:55:28;;;;;;;;;;;;;;;12.86;49.33;100038.16;3525231;28;19928;-50
2021/05/09 07:57:10;;;;;;;;;;;;;;;12.92;48.26;100034.78;3525242;28;19931;-50
2021/05/09 07:58:51;;;;;;;;;;;;;;;13.06;46.50;100030.56;3526046;28;20373;-50
2021/05/09 08:00:33;;;;;;;;;;;;;;;13.09;46.72;100028.00;3525229;28;19928;-47
2021/05/09 08:02:14;;;;;;;;;;;;;;;12.99;47.03;100031.38;3526192;28;19927;-46
2021/05/09 08:03:56;;;;;;;;;;;;;;;13.14;49.34;100030.63;3525254;28;19928;-50
2021/05/09 08:05:40;;;;;;;;;;;;;;;13.35;48.72;100032.53;3526582;28;19932;-46
2021/05/09 08:07:21;;;;;;;;;;;;;;;13.59;48.77;100031.88;3525311;28;20397;-46
2021/05/09 08:09:03;;;;;;;;;;;;;;;13.73;46.32;100029.34;3525045;28;19927;-46
2021/05/09 08:10:45;;;;;;;;;;;;;;;13.89;44.59;100031.19;3525947;28;20380;-50
2021/05/09 08:12:26;;;;;;;;;;;;;;;13.95;44.36;100027.75;3524730;28;19935;-50
2021/05/09 08:14:11;;;;;;;;;;;;;;;13.96;42.94;100034.72;3525385;28;19934;-49
2021/05/09 08:15:52;;;;;;;;;;;;;;;13.84;43.54;100021.59;3524717;28;20372;-50
2021/05/09 08:17:33;;;;;;;;;;;;;;;13.68;44.09;100039.75;3525641;28;19935;-52
2021/05/09 08:19:14;;;;;;;;;;;;;;;13.48;42.90;100034.41;3525708;28;19934;-47
2021/05/09 08:20:56;;;;;;;;;;;;;;;13.49;43.23;100024.84;3524995;28;19927;-46
2021/05/09 08:22:38;;;;;;;;;;;;;;;13.38;43.42;100050.81;3525936;28;19975;-47
2021/05/09 08:24:19;;;;;;;;;;;;;;;13.22;44.31;100028.97;3525000;28;19935;-46
2021/05/09 08:26:03;;;;;;;;;;;;;;;13.28;43.72;100036.84;3525988;28;20423;-48
2021/05/09 08:27:46;;;;;;;;;;;;;;;13.40;45.12;100030.84;3525391;28;19971;-47
2021/05/09 08:29:27;;;;;;;;;;;;;;;13.71;46.44;100028.47;3524892;28;19932;-48
2021/05/09 08:31:10;;;;;;;;;;;;;;;13.97;43.45;100041.69;3525620;28;19975;-48
2021/05/09 08:32:52;;;;;;;;;;;;;;;14.22;44.23;100034.00;3524694;28;20312;-50
2021/05/09 08:34:34;;;;;;;;;;;;;;;14.52;42.38;100032.38;3525951;28;19928;-50
2021/05/09 08:36:16;;;;;;;;;;;;;;;14.76;42.60;100027.22;3524605;28;20384;-50
2021/05/09 08:37:57;;;;;;;;;;;;;;;14.86;39.72;100028.13;3525492;28;19959;-49
2021/05/09 08:39:39;;;;;;;;;;;;;;;14.83;41.18;100026.38;3524978;28;19935;-47
2021/05/09 08:41:21;;;;;;;;;;;;;;;14.58;39.70;100019.38;3525130;28;19975;-48
2021/05/09 08:43:03;;;;;;;;;;;;;;;14.40;43.82;100015.81;3525497;28;20307;-48
2021/05/09 08:44:44;;;;;;;;;;;;;;;14.43;42.05;100021.06;3524574;28;20603;-50
2021/05/09 08:46:26;;;;;;;;;;;;;;;14.27;41.87;100016.59;3526059;28;19928;-46
2021/05/09 08:48:13;;;;;;;;;;;;;;;14.36;43.26;100026.22;3524658;28;19928;-46
2021/05/09 08:49:54;;;;;;;;;;;;;;;14.24;40.03;100022.69;3525251;28;19927;-47
2021/05/09 08:51:35;;;;;;;;;;;;;;;14.25;42.42;100029.66;3525392;28;20004;-47